createdAt,value
2023-05-05T00:00:35.189Z,19.55
2023-05-05T00:03:03.632Z,18.50
2023-05-05T00:05:32.333Z,19.37
2023-05-05T00:08:02.415Z,22.77
2023-05-05T00:10:30.778Z,18.37
2023-05-05T00:12:59.115Z,19.50
2023-05-05T00:15:27.641Z,21.93
2023-05-05T00:17:56.168Z,19.33
2023-05-05T00:20:24.978Z,20.30
2023-05-05T00:22:53.237Z,18.37
2023-05-05T00:25:23.058Z,21.27
2023-05-05T00:27:51.667Z,26.00
2023-05-05T00:30:20.169Z,20.57
2023-05-05T00:32:49.645Z,20.60
2023-05-05T00:35:18.336Z,19.57
2023-05-05T00:37:46.899Z,19.57
2023-05-05T00:40:15.980Z,20.40
2023-05-05T00:42:47.397Z,20.87
2023-05-05T00:45:16.793Z,20.20
2023-05-05T00:47:47.379Z,21.67
2023-05-05T00:50:24.765Z,22.23
2023-05-05T00:52:56.369Z,20.47
2023-05-05T00:55:24.770Z,23.63
2023-05-05T00:57:54.672Z,21.23
2023-05-05T01:00:23.463Z,24.87
2023-05-05T01:02:52.629Z,20.40
2023-05-05T01:05:22.534Z,24.60
2023-05-05T01:08:03.806Z,24.20
2023-05-05T01:10:39.363Z,22.20
2023-05-05T01:13:21.258Z,22.63
2023-05-05T01:15:55.763Z,23.83
2023-05-05T01:18:33.237Z,24.90
2023-05-05T01:21:07.706Z,26.13
2023-05-05T01:24:00.609Z,27.53
2023-05-05T01:26:56.644Z,27.63
2023-05-05T01:29:51.477Z,26.30
2023-05-05T01:32:26.674Z,28.73
2023-05-05T01:34:59.553Z,27.93
2023-05-05T01:37:31.750Z,25.70
2023-05-05T01:40:07.097Z,28.17
2023-05-05T01:42:37.572Z,28.77
2023-05-05T01:45:09.377Z,33.37
2023-05-05T01:47:40.484Z,33.80
2023-05-05T01:50:11.358Z,32.53
2023-05-05T01:52:41.164Z,33.33
2023-05-05T01:55:12.313Z,32.20
2023-05-05T01:57:42.523Z,35.33
2023-05-05T02:00:12.447Z,34.57
2023-05-05T02:02:43.834Z,38.17
2023-05-05T02:05:13.763Z,40.60
2023-05-05T02:07:42.460Z,43.37
2023-05-05T02:10:13.497Z,47.53
2023-05-05T02:12:43.727Z,44.63
2023-05-05T02:15:13.963Z,48.60
2023-05-05T02:17:44.585Z,49.70
2023-05-05T02:20:15.804Z,50.60
2023-05-05T02:22:44.643Z,52.90
2023-05-05T02:25:13.251Z,45.77
2023-05-05T02:27:44.752Z,47.97
2023-05-05T02:30:15.796Z,53.57
2023-05-05T02:32:50.870Z,57.77
2023-05-05T02:35:23.573Z,53.67
2023-05-05T02:37:59.642Z,58.17
2023-05-05T02:40:32.328Z,56.87
2023-05-05T02:43:04.932Z,57.20
2023-05-05T02:45:33.700Z,51.70
2023-05-05T02:48:05.393Z,58.53
2023-05-05T02:50:34.290Z,54.83
2023-05-05T02:53:02.908Z,56.93
2023-05-05T02:55:38.838Z,56.50
2023-05-05T02:58:11.462Z,58.53
2023-05-05T03:00:48.360Z,55.00
2023-05-05T03:03:25.970Z,53.67
2023-05-05T03:06:08.729Z,59.17
2023-05-05T03:08:43.794Z,57.40
2023-05-05T03:11:19.590Z,52.90
2023-05-05T03:13:51.611Z,56.50
2023-05-05T03:16:20.952Z,47.83
2023-05-05T03:18:52.883Z,54.57
2023-05-05T03:21:22.000Z,49.67
2023-05-05T03:23:50.444Z,53.40
2023-05-05T03:26:19.494Z,52.30
2023-05-05T03:28:48.389Z,52.30
2023-05-05T03:31:16.953Z,52.83
2023-05-05T03:33:45.455Z,50.07
2023-05-05T03:36:15.218Z,51.73
2023-05-05T03:38:43.923Z,50.27
2023-05-05T03:41:12.626Z,48.43
2023-05-05T03:43:41.406Z,50.27
2023-05-05T03:46:10.362Z,45.67
2023-05-05T03:48:38.799Z,49.77
2023-05-05T03:51:07.630Z,51.03
2023-05-05T03:53:37.405Z,46.83
2023-05-05T03:56:06.153Z,46.53
2023-05-05T03:58:34.987Z,48.30
2023-05-05T04:01:03.943Z,44.97
2023-05-05T04:03:32.477Z,51.40
2023-05-05T04:06:01.291Z,46.90
2023-05-05T04:08:29.688Z,47.80
2023-05-05T04:10:59.512Z,40.20
2023-05-05T04:13:27.914Z,44.30
2023-05-05T04:15:56.657Z,43.30
2023-05-05T04:18:25.454Z,44.77
2023-05-05T04:20:53.799Z,41.80
2023-05-05T04:23:22.296Z,45.50
2023-05-05T04:25:50.827Z,41.43
2023-05-05T04:28:21.758Z,40.70
2023-05-05T04:30:50.632Z,41.23
2023-05-05T04:33:19.031Z,39.17
2023-05-05T04:35:47.427Z,42.13
2023-05-05T04:38:16.263Z,41.90
2023-05-05T04:40:44.880Z,44.20
2023-05-05T04:43:13.118Z,39.60
2023-05-05T04:45:42.745Z,39.30
2023-05-05T04:48:11.149Z,37.13
2023-05-05T04:50:39.580Z,34.93
2023-05-05T04:53:08.063Z,34.90
2023-05-05T04:55:36.552Z,34.80
2023-05-05T04:58:05.148Z,36.20
2023-05-05T05:00:33.816Z,34.60
2023-05-05T05:03:03.587Z,38.50
2023-05-05T05:05:32.179Z,45.70
2023-05-05T05:08:00.585Z,39.30
2023-05-05T05:10:29.559Z,37.40
2023-05-05T05:12:58.003Z,35.23
2023-05-05T05:15:26.519Z,30.53
2023-05-05T05:17:54.935Z,31.80
2023-05-05T05:20:25.078Z,32.10
2023-05-05T05:22:53.540Z,32.83
2023-05-05T05:25:21.912Z,28.63
2023-05-05T05:28:02.298Z,31.90
2023-05-05T05:30:37.142Z,28.53
2023-05-05T05:33:05.968Z,28.53
2023-05-05T05:35:35.652Z,30.63
2023-05-05T05:38:04.373Z,27.77
2023-05-05T05:40:32.736Z,25.93
2023-05-05T05:43:01.153Z,28.37
2023-05-05T05:45:29.564Z,27.63
2023-05-05T05:47:58.180Z,29.80
2023-05-05T05:50:28.673Z,26.80
2023-05-05T05:52:58.424Z,30.30
2023-05-05T05:55:26.826Z,25.57
2023-05-05T05:57:55.224Z,28.83
2023-05-05T06:00:23.971Z,24.23
2023-05-05T06:02:52.489Z,24.90
2023-05-05T06:05:20.998Z,27.30
2023-05-05T06:07:49.487Z,23.77
2023-05-05T06:10:27.864Z,26.77
2023-05-05T06:12:56.856Z,22.37
2023-05-05T06:15:25.889Z,22.73
2023-05-05T06:17:54.809Z,21.37
2023-05-05T06:20:23.719Z,23.97
2023-05-05T06:22:52.230Z,26.07
2023-05-05T06:25:22.077Z,24.07
2023-05-05T06:27:50.688Z,21.60
2023-05-05T06:30:19.129Z,21.47
2023-05-05T06:32:47.574Z,20.53
2023-05-05T06:35:16.196Z,23.40
2023-05-05T06:37:45.193Z,20.60
2023-05-05T06:40:14.471Z,21.60
2023-05-05T06:42:44.205Z,22.43
2023-05-05T06:45:13.614Z,18.43
2023-05-05T06:47:42.795Z,25.57
2023-05-05T06:50:11.546Z,18.93
2023-05-05T06:52:40.015Z,17.13
2023-05-05T06:55:08.938Z,18.50
2023-05-05T06:57:37.422Z,18.63
2023-05-05T07:00:11.219Z,22.63
2023-05-05T07:02:40.042Z,21.73
2023-05-05T07:05:08.976Z,20.83
2023-05-05T07:07:37.515Z,18.70
2023-05-05T07:10:06.420Z,23.27
2023-05-05T07:12:35.021Z,20.17
2023-05-05T07:15:12.276Z,20.87
2023-05-05T07:17:49.109Z,16.13
2023-05-05T07:20:17.794Z,19.13
2023-05-05T07:22:46.345Z,17.50
2023-05-05T07:25:14.840Z,17.53
2023-05-05T07:27:43.443Z,14.38
2023-05-05T07:30:16.304Z,14.38
2023-05-05T07:32:47.114Z,16.15
2023-05-05T07:35:16.981Z,13.90
2023-05-05T07:37:46.139Z,13.43
2023-05-05T07:40:14.861Z,16.17
2023-05-05T07:42:43.193Z,12.20
2023-05-05T07:45:12.147Z,10.20
2023-05-05T07:47:40.872Z,12.40
2023-05-05T07:50:10.040Z,11.95
2023-05-05T07:55:11.397Z,12.48
2023-05-05T07:57:39.848Z,10.95
2023-05-05T08:00:09.563Z,10.38
2023-05-05T08:02:38.380Z,8.77
2023-05-05T08:05:07.609Z,10.70
2023-05-05T08:07:41.102Z,10.57
2023-05-05T08:10:12.232Z,12.45
2023-05-05T08:12:41.475Z,9.88
2023-05-05T08:15:10.889Z,11.20
2023-05-05T08:17:47.502Z,10.52
2023-05-05T08:20:16.509Z,12.32
2023-05-05T08:22:45.526Z,12.55
2023-05-05T08:25:15.953Z,12.38
2023-05-05T08:27:44.532Z,10.98
2023-05-05T08:30:13.553Z,12.05
2023-05-05T08:32:42.378Z,15.45
2023-05-05T08:35:12.189Z,9.55
2023-05-05T08:37:40.798Z,14.98
2023-05-05T08:40:12.905Z,11.90
2023-05-05T08:42:44.594Z,9.57
2023-05-05T08:45:13.327Z,7.05
2023-05-05T08:47:43.411Z,8.00
2023-05-05T08:50:12.860Z,11.40
2023-05-05T08:52:44.325Z,15.38
2023-05-05T08:55:19.106Z,10.77
2023-05-05T08:57:53.422Z,13.93
2023-05-05T09:00:22.766Z,12.60
2023-05-05T09:02:51.887Z,10.23
2023-05-05T09:05:20.641Z,12.48
2023-05-05T09:07:49.099Z,11.95
2023-05-05T09:10:17.508Z,17.73
2023-05-05T09:12:46.244Z,11.57
2023-05-05T09:15:16.402Z,13.02
2023-05-05T09:17:45.057Z,11.38
2023-05-05T09:20:15.130Z,10.35
2023-05-05T09:22:44.484Z,8.63
2023-05-05T09:25:13.879Z,12.57
2023-05-05T09:27:45.855Z,11.82
2023-05-05T09:30:17.224Z,12.38
2023-05-05T09:32:49.524Z,9.55
2023-05-05T09:35:18.368Z,9.75
2023-05-05T09:37:47.037Z,9.60
2023-05-05T09:40:18.443Z,11.50
2023-05-05T09:42:47.369Z,15.88
2023-05-05T09:45:29.337Z,9.55
2023-05-05T09:48:00.411Z,10.05
2023-05-05T09:50:32.772Z,18.48
2023-05-05T09:53:02.260Z,13.25
2023-05-05T09:55:31.501Z,13.50
2023-05-05T09:58:19.770Z,7.90
2023-05-05T10:00:49.621Z,8.50
2023-05-05T10:03:18.021Z,10.20
2023-05-05T10:05:54.254Z,8.75
2023-05-05T10:08:24.026Z,9.07
2023-05-05T10:10:54.042Z,9.25
2023-05-05T10:13:23.881Z,10.20
2023-05-05T10:15:55.123Z,10.45
2023-05-05T10:18:25.136Z,13.40
2023-05-05T10:20:59.324Z,13.10
2023-05-05T10:23:34.407Z,10.80
2023-05-05T10:26:04.436Z,10.85
2023-05-05T10:28:38.393Z,13.32
2023-05-05T10:31:24.453Z,12.48
2023-05-05T10:33:58.944Z,9.25
2023-05-05T10:36:28.040Z,10.52
2023-05-05T10:38:58.088Z,9.90
2023-05-05T10:41:27.334Z,8.35
2023-05-05T10:43:58.368Z,8.77
2023-05-05T10:46:29.244Z,13.57
2023-05-05T10:49:06.247Z,6.63
2023-05-05T10:51:51.146Z,12.13
2023-05-05T10:54:25.843Z,8.15
2023-05-05T10:56:54.442Z,11.15
2023-05-05T10:59:43.038Z,11.07
2023-05-05T11:02:23.923Z,11.35
2023-05-05T11:05:12.360Z,7.13
2023-05-05T11:07:41.868Z,9.52
2023-05-05T11:10:11.799Z,8.93
2023-05-05T11:13:20.117Z,8.23
2023-05-05T11:15:49.296Z,8.90
2023-05-05T11:18:37.436Z,8.80
2023-05-05T11:21:16.757Z,7.65
2023-05-05T11:23:46.621Z,8.93
2023-05-05T11:26:16.270Z,9.60
2023-05-05T11:29:02.473Z,9.55
2023-05-05T11:31:31.791Z,11.25
2023-05-05T11:34:29.434Z,11.43
2023-05-05T11:37:01.025Z,10.27
2023-05-05T11:39:49.835Z,9.65
2023-05-05T11:42:26.866Z,12.10
2023-05-05T11:44:55.699Z,11.00
2023-05-05T11:47:33.479Z,12.68
2023-05-05T11:50:23.617Z,13.18
2023-05-05T11:52:52.056Z,13.80
2023-05-05T11:55:24.080Z,12.27
2023-05-05T11:57:52.787Z,15.05
2023-05-05T12:00:21.888Z,13.95
2023-05-05T12:02:58.765Z,12.57
2023-05-05T12:05:28.409Z,16.05
2023-05-05T12:08:00.200Z,16.27
2023-05-05T12:10:29.331Z,15.30
2023-05-05T12:12:58.239Z,13.25
2023-05-05T12:15:33.319Z,11.18
2023-05-05T12:18:02.992Z,15.63
2023-05-05T12:20:35.140Z,19.55
2023-05-05T12:23:04.846Z,8.50
2023-05-05T12:25:40.782Z,14.23
2023-05-05T12:28:09.920Z,16.67
2023-05-05T12:30:38.465Z,8.07
2023-05-05T12:33:08.372Z,11.20
2023-05-05T12:35:38.305Z,11.88
2023-05-05T12:38:07.515Z,9.10
2023-05-05T12:40:47.101Z,11.77
2023-05-05T12:43:31.224Z,9.20
2023-05-05T12:46:07.320Z,13.18
2023-05-05T12:48:37.852Z,13.70
2023-05-05T12:51:14.893Z,13.05
2023-05-05T12:53:43.844Z,19.52
2023-05-05T12:56:34.376Z,14.60
2023-05-05T12:59:03.459Z,16.20
2023-05-05T13:01:31.940Z,13.38
2023-05-05T13:04:11.857Z,14.63
2023-05-05T13:06:42.682Z,17.23
2023-05-05T13:09:23.122Z,15.13
2023-05-05T13:11:51.699Z,18.73
2023-05-05T13:14:20.312Z,17.45
2023-05-05T13:16:48.994Z,21.77
2023-05-05T13:19:17.743Z,16.48
2023-05-05T13:21:47.321Z,20.60
2023-05-05T13:26:47.146Z,19.15
2023-05-05T13:29:16.530Z,24.88
2023-05-05T13:31:45.185Z,21.38
2023-05-05T13:34:13.738Z,20.15
2023-05-05T13:36:42.207Z,14.02
2023-05-05T13:39:12.717Z,20.25
2023-05-05T13:41:41.440Z,15.18
2023-05-05T13:44:09.888Z,15.77
2023-05-05T13:46:38.484Z,16.52
2023-05-05T13:49:07.035Z,150.32
2023-05-05T13:51:35.736Z,16.73
2023-05-05T13:54:04.153Z,15.60
2023-05-05T13:56:33.957Z,11.10
2023-05-05T13:59:02.710Z,16.73
2023-05-05T14:01:31.326Z,14.68
2023-05-05T14:04:01.407Z,12.43
2023-05-05T14:06:32.732Z,15.13
2023-05-05T14:09:01.407Z,20.52
2023-05-05T14:11:31.590Z,17.08
2023-05-05T14:14:01.815Z,13.63
2023-05-05T14:16:30.471Z,14.85
2023-05-05T14:18:59.178Z,34.13
2023-05-05T14:21:27.729Z,14.60
2023-05-05T14:23:56.171Z,13.20
2023-05-05T14:26:24.595Z,8.88
2023-05-05T14:28:53.029Z,7.78
2023-05-05T14:31:22.666Z,9.98
2023-05-05T14:33:51.291Z,8.57
2023-05-05T14:36:20.024Z,10.98
2023-05-05T14:38:48.519Z,12.38
2023-05-05T14:41:17.176Z,12.32
2023-05-05T14:43:45.740Z,9.70
2023-05-05T14:46:14.401Z,12.77
2023-05-05T14:48:44.322Z,15.48
2023-05-05T14:51:12.916Z,12.18
2023-05-05T14:53:41.377Z,8.77
2023-05-05T14:56:10.037Z,12.13
2023-05-05T14:58:38.505Z,14.02
2023-05-05T15:01:07.002Z,10.18
2023-05-05T15:03:35.599Z,10.43
2023-05-05T15:06:05.912Z,14.82
2023-05-05T15:08:34.499Z,8.57
2023-05-05T15:11:02.901Z,9.73
2023-05-05T15:13:31.387Z,12.13
2023-05-05T15:15:59.950Z,10.13
2023-05-05T15:18:28.676Z,12.50
2023-05-05T15:20:57.168Z,16.15
2023-05-05T15:23:26.739Z,10.95
2023-05-05T15:25:55.510Z,13.95
2023-05-05T15:28:24.330Z,12.23
2023-05-05T15:30:52.797Z,11.57
2023-05-05T15:33:21.323Z,11.68
2023-05-05T15:35:49.922Z,11.68
2023-05-05T15:38:18.736Z,7.13
2023-05-05T15:40:50.165Z,9.05
2023-05-05T15:43:18.706Z,11.85
2023-05-05T15:45:47.120Z,16.60
2023-05-05T15:48:15.456Z,13.13
2023-05-05T15:50:44.142Z,11.25
2023-05-05T15:53:12.588Z,10.88
2023-05-05T15:55:41.046Z,12.52
2023-05-05T15:58:11.021Z,11.60
2023-05-05T16:00:40.610Z,9.52
2023-05-05T16:03:09.094Z,11.43
2023-05-05T16:05:37.731Z,12.23
2023-05-05T16:08:10.103Z,14.38
2023-05-05T16:10:38.628Z,14.55
2023-05-05T16:13:07.337Z,14.32
2023-05-05T16:15:37.299Z,16.25
2023-05-05T16:18:05.974Z,12.50
2023-05-05T16:20:34.240Z,12.73
2023-05-05T16:23:02.772Z,9.15
2023-05-05T16:25:31.338Z,13.15
2023-05-05T16:28:00.265Z,13.23
2023-05-05T16:30:29.264Z,14.63
2023-05-05T16:32:59.251Z,16.13
2023-05-05T16:35:27.859Z,13.57
2023-05-05T16:37:56.305Z,12.18
2023-05-05T16:40:24.833Z,13.50
2023-05-05T16:42:53.273Z,13.82
2023-05-05T16:45:21.671Z,7.55
2023-05-05T16:47:49.976Z,10.93
2023-05-05T16:50:19.759Z,8.73
2023-05-05T16:52:48.201Z,13.63
2023-05-05T16:55:16.757Z,8.60
2023-05-05T16:57:45.238Z,13.35
2023-05-05T17:00:14.882Z,11.82
2023-05-05T17:02:43.382Z,11.68
2023-05-05T17:05:12.065Z,9.20
2023-05-05T17:07:41.987Z,12.68
2023-05-05T17:10:11.130Z,8.50
2023-05-05T17:12:39.693Z,12.68
2023-05-05T17:15:09.188Z,14.00
2023-05-05T17:17:38.073Z,11.90
2023-05-05T17:20:07.719Z,9.95
2023-05-05T17:22:36.290Z,12.80
2023-05-05T17:25:06.583Z,10.93
2023-05-05T17:27:35.111Z,14.00
2023-05-05T17:30:03.545Z,9.30
2023-05-05T17:32:31.978Z,9.07
2023-05-05T17:35:00.482Z,12.60
2023-05-05T17:37:29.343Z,8.70
2023-05-05T17:39:58.050Z,12.10
2023-05-05T17:42:30.249Z,10.63
2023-05-05T17:44:58.809Z,11.65
2023-05-05T17:47:27.251Z,11.68
2023-05-05T17:49:57.912Z,9.57
2023-05-05T17:52:27.813Z,10.55
2023-05-05T17:54:56.306Z,13.82
2023-05-05T17:57:24.702Z,10.25
2023-05-05T17:59:54.622Z,8.70
2023-05-05T18:02:24.083Z,9.43
2023-05-05T18:04:52.683Z,10.10
2023-05-05T18:07:21.154Z,12.88
2023-05-05T18:09:49.546Z,11.73
2023-05-05T18:12:17.926Z,11.52
2023-05-05T18:14:46.491Z,12.48
2023-05-05T18:17:16.136Z,11.10
2023-05-05T18:19:46.616Z,13.32
2023-05-05T18:22:17.066Z,9.95
2023-05-05T18:24:47.362Z,11.85
2023-05-05T18:27:15.880Z,11.48
2023-05-05T18:29:44.376Z,15.18
2023-05-05T18:32:12.820Z,12.00
2023-05-05T18:34:42.529Z,13.40
2023-05-05T18:37:11.174Z,11.23
2023-05-05T18:39:40.574Z,9.18
2023-05-05T18:42:09.883Z,13.40
2023-05-05T18:44:38.282Z,12.13
2023-05-05T18:47:06.857Z,11.30
2023-05-05T18:49:35.395Z,10.75
2023-05-05T18:52:05.359Z,11.15
2023-05-05T18:54:35.142Z,8.90
2023-05-05T18:57:05.645Z,13.80
2023-05-05T18:59:34.354Z,15.52
2023-05-05T19:02:02.912Z,13.02
2023-05-05T19:04:32.273Z,11.65
2023-05-05T19:07:00.959Z,14.23
2023-05-05T19:09:30.684Z,15.32
2023-05-05T19:11:59.198Z,14.15
2023-05-05T19:14:27.605Z,14.93
2023-05-05T19:16:56.435Z,13.13
2023-05-05T19:19:28.301Z,10.98
2023-05-05T19:21:57.121Z,12.45
2023-05-05T19:24:25.752Z,12.68
2023-05-05T19:26:55.370Z,14.32
2023-05-05T19:29:23.817Z,12.90
2023-05-05T19:31:52.273Z,12.88
2023-05-05T19:34:21.754Z,14.57
2023-05-05T19:36:50.152Z,14.25
2023-05-05T19:39:18.624Z,13.93
2023-05-05T19:41:47.407Z,14.65
2023-05-05T19:44:17.732Z,16.27
2023-05-05T19:46:46.277Z,15.88
2023-05-05T19:49:14.753Z,12.95
2023-05-05T19:51:43.844Z,17.83
2023-05-05T19:54:12.369Z,17.10
2023-05-05T19:56:40.810Z,17.58
2023-05-05T19:59:09.370Z,14.48
2023-05-05T20:01:39.378Z,13.35
2023-05-05T20:04:07.985Z,18.20
2023-05-05T20:06:37.561Z,14.85
2023-05-05T20:09:06.322Z,15.00
2023-05-05T20:11:35.681Z,15.88
2023-05-05T20:14:04.204Z,14.15
2023-05-05T20:16:33.489Z,15.30
2023-05-05T20:19:03.636Z,18.88
2023-05-05T20:21:32.550Z,16.50
2023-05-05T20:24:01.103Z,19.38
2023-05-05T20:26:29.662Z,16.95
2023-05-05T20:28:58.085Z,17.85
2023-05-05T20:31:26.583Z,18.77
2023-05-05T20:33:55.128Z,15.32
2023-05-05T20:36:26.273Z,19.20
2023-05-05T20:38:54.824Z,23.23
2023-05-05T20:41:23.290Z,35.47
2023-05-05T20:43:51.728Z,26.80
2023-05-05T20:46:20.292Z,29.08
2023-05-05T20:48:48.694Z,25.38
2023-05-05T20:51:17.094Z,25.23
2023-05-05T20:53:46.837Z,27.67
2023-05-05T20:56:15.336Z,25.92
2023-05-05T20:58:44.010Z,20.52
2023-05-05T21:01:13.165Z,21.38
2023-05-05T21:03:41.600Z,18.73
2023-05-05T21:06:10.047Z,16.70
2023-05-05T21:08:39.527Z,17.88
2023-05-05T21:11:11.407Z,20.60
2023-05-05T21:13:40.018Z,24.90
2023-05-05T21:16:08.571Z,21.10
2023-05-05T21:18:37.044Z,19.65
2023-05-05T21:21:05.584Z,15.10
2023-05-05T21:23:34.043Z,19.73
2023-05-05T21:26:04.067Z,22.88
2023-05-05T21:28:33.861Z,17.65
2023-05-05T21:31:20.629Z,19.30
2023-05-05T21:33:50.540Z,18.65
2023-05-05T21:36:19.554Z,22.27
2023-05-05T21:38:48.211Z,24.63
2023-05-05T21:41:16.740Z,17.55
2023-05-05T21:43:46.461Z,21.90
2023-05-05T21:46:17.136Z,18.45
2023-05-05T21:48:47.321Z,22.50
2023-05-05T21:51:15.959Z,20.67
2023-05-05T21:53:44.432Z,14.60
2023-05-05T21:56:13.130Z,19.23
2023-05-05T21:58:42.150Z,20.13
2023-05-05T22:01:13.020Z,16.87
2023-05-05T22:03:43.621Z,15.70
2023-05-05T22:06:12.519Z,20.90
2023-05-05T22:08:41.033Z,19.93
2023-05-05T22:11:09.560Z,24.10
2023-05-05T22:13:38.988Z,20.07
2023-05-05T22:16:07.753Z,22.23
2023-05-05T22:18:37.895Z,22.60
2023-05-05T22:21:06.557Z,21.17
2023-05-05T22:23:35.093Z,21.87
2023-05-05T22:26:04.667Z,23.20
2023-05-05T22:28:33.115Z,24.50
2023-05-05T22:31:01.722Z,23.90
2023-05-05T22:33:30.233Z,35.70
2023-05-05T22:35:59.851Z,63.53
2023-05-05T22:38:28.810Z,35.33
2023-05-05T22:40:57.218Z,37.47
2023-05-05T22:43:25.507Z,25.23
2023-05-05T22:45:54.788Z,21.00
2023-05-05T22:48:23.168Z,21.63
2023-05-05T22:50:51.589Z,27.03
2023-05-05T22:53:21.530Z,26.20
2023-05-05T22:55:51.613Z,22.97
2023-05-05T22:58:20.985Z,24.37
2023-05-05T23:00:49.457Z,24.23
2023-05-05T23:03:17.893Z,20.40
2023-05-05T23:05:46.341Z,27.17
2023-05-05T23:08:14.773Z,25.83
2023-05-05T23:10:44.387Z,26.87
2023-05-05T23:13:12.825Z,23.63
2023-05-05T23:15:42.032Z,25.00
2023-05-05T23:18:11.032Z,20.08
2023-05-05T23:20:39.414Z,24.40
2023-05-05T23:23:07.974Z,19.50
2023-05-05T23:25:36.382Z,26.50
2023-05-05T23:28:06.348Z,27.03
2023-05-05T23:30:34.915Z,36.10
2023-05-05T23:33:05.330Z,27.73
2023-05-05T23:35:39.343Z,28.47
2023-05-05T23:38:08.026Z,23.37
2023-05-05T23:40:36.459Z,25.63
2023-05-05T23:43:06.405Z,21.17
2023-05-05T23:45:34.877Z,22.53
2023-05-05T23:48:03.346Z,20.87
2023-05-05T23:50:31.887Z,19.07
2023-05-05T23:53:00.267Z,22.67
2023-05-05T23:55:28.682Z,21.00
2023-05-05T23:57:57.240Z,23.40
